createdAt,value
2018-10-01T00:02:03.704Z,-1.00
2018-10-01T00:04:31.345Z,-1.05
2018-10-01T00:06:59.017Z,-1.07
2018-10-01T00:09:26.649Z,-1.06
2018-10-01T00:11:54.325Z,-1.08
2018-10-01T00:14:21.968Z,-1.10
2018-10-01T00:16:49.595Z,-1.15
2018-10-01T00:19:22.900Z,-1.20
2018-10-01T00:21:56.061Z,-1.22
2018-10-01T00:24:23.988Z,-1.25
2018-10-01T00:26:51.648Z,-1.31
2018-10-01T00:29:19.326Z,-1.35
2018-10-01T00:31:46.957Z,-1.37
2018-10-01T00:34:14.837Z,-1.50
2018-10-01T00:36:42.501Z,-1.58
2018-10-01T00:39:10.686Z,-1.62
2018-10-01T00:41:38.609Z,-1.63
2018-10-01T00:44:06.637Z,-1.70
2018-10-01T00:46:34.413Z,-1.78
2018-10-01T00:49:02.192Z,-1.84
2018-10-01T00:51:29.833Z,-1.84
2018-10-01T00:53:57.446Z,-1.82
2018-10-01T00:56:25.141Z,-1.85
2018-10-01T00:58:52.755Z,-1.89
2018-10-01T01:01:20.391Z,-1.91
2018-10-01T01:03:48.048Z,-1.91
2018-10-01T01:06:15.741Z,-1.94
2018-10-01T01:08:43.484Z,-1.94
2018-10-01T01:11:11.101Z,-1.97
2018-10-01T01:13:38.755Z,-2.02
2018-10-01T01:16:06.405Z,-2.07
2018-10-01T01:18:34.130Z,-2.06
2018-10-01T01:21:01.773Z,-2.13
2018-10-01T01:23:29.419Z,-2.17
2018-10-01T01:25:57.082Z,-2.15
2018-10-01T01:28:24.744Z,-2.16
2018-10-01T01:30:52.389Z,-2.21
2018-10-01T01:33:20.173Z,-2.29
2018-10-01T01:35:47.805Z,-2.33
2018-10-01T01:38:15.475Z,-2.37
2018-10-01T01:40:43.167Z,-2.36
2018-10-01T01:43:10.804Z,-2.34
2018-10-01T01:45:38.429Z,-2.42
2018-10-01T01:48:06.173Z,-2.45
2018-10-01T01:50:33.862Z,-2.43
2018-10-01T01:53:06.145Z,-2.39
2018-10-01T01:55:33.790Z,-2.33
2018-10-01T01:58:01.433Z,-2.33
2018-10-01T02:00:29.072Z,-2.34
2018-10-01T02:02:56.698Z,-2.36
2018-10-01T02:05:24.354Z,-2.37
2018-10-01T02:07:52.032Z,-2.40
2018-10-01T02:10:19.669Z,-2.42
2018-10-01T02:12:47.328Z,-2.42
2018-10-01T02:15:14.962Z,-2.44
2018-10-01T02:17:42.597Z,-2.46
2018-10-01T02:20:10.234Z,-2.46
2018-10-01T02:22:37.866Z,-2.47
2018-10-01T02:25:05.630Z,-2.49
2018-10-01T02:27:33.262Z,-2.54
2018-10-01T02:30:00.904Z,-2.59
2018-10-01T02:32:28.567Z,-2.63
2018-10-01T02:34:56.242Z,-2.64
2018-10-01T02:37:23.870Z,-2.66
2018-10-01T02:39:51.593Z,-2.65
2018-10-01T02:42:19.238Z,-2.67
2018-10-01T02:44:46.849Z,-2.68
2018-10-01T02:47:14.884Z,-2.73
2018-10-01T02:49:42.533Z,-2.75
2018-10-01T02:52:15.838Z,-2.79
2018-10-01T02:54:43.515Z,-2.83
2018-10-01T02:57:11.176Z,-2.82
2018-10-01T02:59:38.836Z,-2.82
2018-10-01T03:02:06.615Z,-2.83
2018-10-01T03:04:34.269Z,-2.84
2018-10-01T03:07:01.920Z,-2.84
2018-10-01T03:09:29.581Z,-2.81
2018-10-01T03:11:57.213Z,-2.81
2018-10-01T03:14:24.852Z,-2.85
2018-10-01T03:16:52.500Z,-2.89
2018-10-01T03:19:20.134Z,-2.91
2018-10-01T03:21:47.776Z,-2.92
2018-10-01T03:24:16.110Z,-2.91
2018-10-01T03:26:43.786Z,-2.91
2018-10-01T03:29:11.446Z,-2.91
2018-10-01T03:31:39.089Z,-2.92
2018-10-01T03:34:06.941Z,-2.92
2018-10-01T03:36:34.666Z,-2.92
2018-10-01T03:39:02.310Z,-2.97
2018-10-01T03:41:29.930Z,-3.01
2018-10-01T03:43:57.576Z,-3.02
2018-10-01T03:46:25.217Z,-3.04
2018-10-01T03:48:52.860Z,-3.07
2018-10-01T03:51:20.480Z,-3.05
2018-10-01T03:53:48.144Z,-3.05
2018-10-01T03:56:15.801Z,-3.04
2018-10-01T03:58:43.450Z,-3.04
2018-10-01T04:01:11.102Z,-3.05
2018-10-01T04:03:38.807Z,-3.05
2018-10-01T04:06:06.093Z,-3.09
2018-10-01T04:08:33.752Z,-3.04
2018-10-01T04:11:01.409Z,-3.05
2018-10-01T04:13:29.029Z,-3.03
2018-10-01T04:15:56.645Z,-3.01
2018-10-01T04:18:24.268Z,-3.01
2018-10-01T04:20:51.938Z,-3.01
2018-10-01T04:23:19.653Z,-3.05
2018-10-01T04:25:47.329Z,-3.07
2018-10-01T04:28:15.043Z,-3.09
2018-10-01T04:30:42.681Z,-3.10
2018-10-01T04:33:10.310Z,-3.08
2018-10-01T04:35:37.984Z,-3.10
2018-10-01T04:38:05.746Z,-3.08
2018-10-01T04:40:33.404Z,-3.07
2018-10-01T04:43:01.042Z,-3.07
2018-10-01T04:45:28.709Z,-3.12
2018-10-01T04:47:56.352Z,-3.18
2018-10-01T04:50:24.136Z,-3.21
2018-10-01T04:52:51.751Z,-3.21
2018-10-01T04:55:19.429Z,-3.20
2018-10-01T04:57:47.064Z,-3.19
2018-10-01T05:00:14.706Z,-3.17
2018-10-01T05:02:42.375Z,-3.17
2018-10-01T05:05:10.030Z,-3.15
2018-10-01T05:07:37.681Z,-3.09
2018-10-01T05:10:05.685Z,-3.06
2018-10-01T05:12:33.376Z,-3.05
2018-10-01T05:15:01.016Z,-3.03
2018-10-01T05:17:28.648Z,-3.01
2018-10-01T05:19:56.301Z,-3.09
2018-10-01T05:22:23.913Z,-2.97
2018-10-01T05:24:51.653Z,-2.96
2018-10-01T05:27:19.272Z,-2.93
2018-10-01T05:29:46.880Z,-2.92
2018-10-01T05:32:14.537Z,-2.86
2018-10-01T05:34:42.242Z,-2.83
2018-10-01T05:37:09.873Z,-2.80
2018-10-01T05:39:37.509Z,-2.78
2018-10-01T05:42:05.193Z,-2.70
2018-10-01T05:44:32.897Z,-2.63
2018-10-01T05:47:00.545Z,-2.50
2018-10-01T05:49:28.177Z,-2.40
2018-10-01T05:51:55.916Z,-2.27
2018-10-01T05:54:23.597Z,-2.11
2018-10-01T05:56:51.328Z,-1.92
2018-10-01T05:59:19.020Z,-1.71
2018-10-01T06:01:46.689Z,-1.51
2018-10-01T06:04:14.352Z,-1.38
2018-10-01T06:06:42.013Z,-1.17
2018-10-01T06:09:10.898Z,-0.98
2018-10-01T06:11:38.686Z,-0.74
2018-10-01T06:14:06.435Z,-0.54
2018-10-01T06:16:34.058Z,-0.31
2018-10-01T06:19:01.725Z,-0.11
2018-10-01T06:21:29.535Z,0.13
2018-10-01T06:23:57.164Z,0.35
2018-10-01T06:26:24.789Z,0.57
2018-10-01T06:28:52.431Z,0.85
2018-10-01T06:31:20.087Z,1.13
2018-10-01T06:33:47.763Z,1.40
2018-10-01T06:36:15.442Z,1.72
2018-10-01T06:38:43.090Z,1.94
2018-10-01T06:41:10.749Z,2.16
2018-10-01T06:43:38.403Z,2.40
2018-10-01T06:46:06.081Z,2.68
2018-10-01T06:48:33.722Z,3.02
2018-10-01T06:51:01.412Z,3.38
2018-10-01T06:53:29.159Z,3.68
2018-10-01T06:55:56.765Z,4.11
2018-10-01T06:58:24.385Z,4.47
2018-10-01T07:00:52.056Z,4.71
2018-10-01T07:03:19.692Z,4.88
2018-10-01T07:05:47.458Z,5.08
2018-10-01T07:08:15.046Z,5.28
2018-10-01T07:10:42.945Z,5.53
2018-10-01T07:13:10.565Z,5.84
2018-10-01T07:15:38.380Z,6.19
2018-10-01T07:18:06.012Z,6.50
2018-10-01T07:20:33.621Z,6.89
2018-10-01T07:23:01.263Z,7.11
2018-10-01T07:25:29.027Z,7.33
2018-10-01T07:27:56.646Z,7.58
2018-10-01T07:30:24.298Z,7.72
2018-10-01T07:32:51.965Z,8.05
2018-10-01T07:35:19.586Z,8.28
2018-10-01T07:37:47.179Z,8.58
2018-10-01T07:40:14.834Z,8.60
2018-10-01T07:42:42.448Z,8.81
2018-10-01T07:45:10.157Z,9.09
2018-10-01T07:47:37.705Z,9.23
2018-10-01T07:50:05.970Z,9.50
2018-10-01T07:52:33.594Z,9.70
2018-10-01T07:55:01.244Z,9.84
2018-10-01T07:57:28.901Z,9.89
2018-10-01T07:59:56.640Z,10.00
2018-10-01T08:02:24.216Z,10.11
2018-10-01T08:04:51.830Z,10.20
2018-10-01T08:07:19.482Z,10.21
2018-10-01T08:09:47.098Z,10.44
2018-10-01T08:12:14.818Z,10.63
2018-10-01T08:14:42.557Z,10.89
2018-10-01T08:17:10.149Z,11.18
2018-10-01T08:19:37.737Z,11.38
2018-10-01T08:22:05.481Z,11.52
2018-10-01T08:24:33.088Z,11.51
2018-10-01T08:27:00.686Z,11.66
2018-10-01T08:29:28.465Z,11.97
2018-10-01T08:31:56.095Z,12.11
2018-10-01T08:34:23.693Z,11.93
2018-10-01T08:36:51.315Z,12.10
2018-10-01T08:39:18.930Z,12.13
2018-10-01T08:41:46.554Z,12.04
2018-10-01T08:44:14.227Z,12.18
2018-10-01T08:46:41.986Z,12.29
2018-10-01T08:49:15.925Z,12.59
2018-10-01T08:51:48.742Z,12.59
2018-10-01T08:54:30.210Z,12.77
2018-10-01T08:56:57.832Z,12.84
2018-10-01T08:59:25.449Z,13.02
2018-10-01T09:01:53.137Z,13.01
2018-10-01T09:04:20.817Z,13.18
2018-10-01T09:06:48.458Z,13.27
2018-10-01T09:09:16.097Z,13.27
2018-10-01T09:11:43.734Z,13.41
2018-10-01T09:14:11.409Z,13.62
2018-10-01T09:16:39.015Z,13.58
2018-10-01T09:19:06.686Z,13.61
2018-10-01T09:21:34.425Z,13.56
2018-10-01T09:24:02.049Z,13.51
2018-10-01T09:26:29.756Z,13.18
2018-10-01T09:28:57.542Z,13.30
2018-10-01T09:31:25.214Z,13.31
2018-10-01T09:33:52.837Z,13.44
2018-10-01T09:36:20.508Z,13.63
2018-10-01T09:38:48.120Z,13.80
2018-10-01T09:41:15.800Z,14.09
2018-10-01T09:43:43.521Z,14.04
2018-10-01T09:46:11.194Z,14.21
2018-10-01T09:48:38.840Z,14.21
2018-10-01T09:51:06.557Z,14.16
2018-10-01T09:53:34.335Z,14.33
2018-10-01T09:56:02.004Z,14.48
2018-10-01T09:58:29.723Z,14.57
2018-10-01T10:01:02.929Z,14.40
2018-10-01T10:03:30.569Z,14.53
2018-10-01T10:05:58.205Z,14.70
2018-10-01T10:08:25.901Z,14.69
2018-10-01T10:10:53.545Z,14.46
2018-10-01T10:13:21.165Z,14.34
2018-10-01T10:15:48.808Z,14.47
2018-10-01T10:18:16.681Z,14.44
2018-10-01T10:20:44.329Z,14.58
2018-10-01T10:23:11.961Z,14.71
2018-10-01T10:25:39.665Z,14.94
2018-10-01T10:28:07.315Z,15.10
2018-10-01T10:30:34.961Z,15.06
2018-10-01T10:33:02.613Z,14.93
2018-10-01T10:35:30.361Z,15.03
2018-10-01T10:37:57.979Z,15.00
2018-10-01T10:40:25.630Z,15.09
2018-10-01T10:42:53.345Z,15.41
2018-10-01T10:45:20.995Z,15.39
2018-10-01T10:47:48.629Z,15.53
2018-10-01T10:50:16.355Z,15.52
2018-10-01T10:52:44.140Z,15.53
2018-10-01T10:55:11.770Z,15.59
2018-10-01T10:57:39.487Z,15.57
2018-10-01T11:00:07.411Z,15.66
2018-10-01T11:02:35.110Z,15.60
2018-10-01T11:05:02.743Z,15.49
2018-10-01T11:07:30.431Z,15.76
2018-10-01T11:09:58.061Z,15.74
2018-10-01T11:12:25.701Z,15.71
2018-10-01T11:14:53.409Z,15.65
2018-10-01T11:17:21.090Z,15.29
2018-10-01T11:19:48.784Z,15.20
2018-10-01T11:22:16.455Z,15.10
2018-10-01T11:24:44.099Z,15.12
2018-10-01T11:27:11.754Z,14.99
2018-10-01T11:29:39.423Z,14.89
2018-10-01T11:32:07.160Z,14.82
2018-10-01T11:34:34.963Z,14.47
2018-10-01T11:37:02.682Z,14.45
2018-10-01T11:39:30.303Z,14.20
2018-10-01T11:41:57.988Z,14.05
2018-10-01T11:44:25.602Z,14.13
2018-10-01T11:46:53.277Z,14.16
2018-10-01T11:49:20.909Z,14.06
2018-10-01T11:51:48.529Z,14.15
2018-10-01T11:54:16.238Z,14.17
2018-10-01T11:56:43.865Z,14.14
2018-10-01T11:59:11.565Z,14.07
2018-10-01T12:01:39.224Z,13.95
2018-10-01T12:04:06.960Z,13.67
2018-10-01T12:06:34.590Z,13.53
2018-10-01T12:09:02.449Z,13.36
2018-10-01T12:11:30.097Z,13.44
2018-10-01T12:13:57.705Z,13.46
2018-10-01T12:16:25.365Z,13.31
2018-10-01T12:18:52.984Z,13.35
2018-10-01T12:21:20.668Z,13.50
2018-10-01T12:23:48.333Z,13.46
2018-10-01T12:26:15.974Z,13.51
2018-10-01T12:28:43.616Z,13.25
2018-10-01T12:31:11.292Z,13.13
2018-10-01T12:33:38.965Z,12.94
2018-10-01T12:36:06.625Z,12.79
2018-10-01T12:38:34.287Z,12.61
2018-10-01T12:41:01.900Z,12.48
2018-10-01T12:43:29.548Z,12.42
2018-10-01T12:45:57.233Z,12.52
2018-10-01T12:48:24.825Z,12.43
2018-10-01T12:50:53.116Z,12.30
2018-10-01T12:53:20.724Z,12.23
2018-10-01T12:55:48.344Z,12.09
2018-10-01T12:58:16.070Z,11.97
2018-10-01T13:00:43.844Z,11.80
2018-10-01T13:03:11.477Z,11.70
2018-10-01T13:05:39.108Z,11.62
2018-10-01T13:08:06.765Z,11.53
2018-10-01T13:10:34.404Z,11.49
2018-10-01T13:13:02.055Z,11.39
2018-10-01T13:15:29.764Z,11.30
2018-10-01T13:17:57.465Z,11.22
2018-10-01T13:20:25.113Z,11.17
2018-10-01T13:22:52.778Z,11.23
2018-10-01T13:25:20.445Z,11.23
2018-10-01T13:27:48.133Z,11.18
2018-10-01T13:30:15.830Z,11.07
2018-10-01T13:32:43.397Z,10.99
2018-10-01T13:35:11.005Z,10.98
2018-10-01T13:37:38.805Z,10.94
2018-10-01T13:40:06.465Z,10.86
2018-10-01T13:42:34.171Z,10.74
2018-10-01T13:45:01.783Z,10.65
2018-10-01T13:47:29.492Z,10.50
2018-10-01T13:49:57.153Z,10.37
2018-10-01T13:52:24.931Z,10.19
2018-10-01T13:54:52.567Z,9.99
2018-10-01T13:57:20.202Z,9.88
2018-10-01T13:59:47.841Z,9.83
2018-10-01T14:02:15.709Z,9.73
2018-10-01T14:04:43.405Z,9.65
2018-10-01T14:07:11.102Z,9.56
2018-10-01T14:09:45.757Z,9.54
2018-10-01T14:12:13.389Z,9.45
2018-10-01T14:14:41.085Z,9.31
2018-10-01T14:17:08.713Z,9.25
2018-10-01T14:19:36.500Z,9.15
2018-10-01T14:22:04.124Z,9.08
2018-10-01T14:24:31.749Z,8.95
2018-10-01T14:26:59.454Z,8.87
2018-10-01T14:29:27.065Z,8.71
2018-10-01T14:31:54.676Z,8.64
2018-10-01T14:34:22.317Z,8.59
2018-10-01T14:36:50.025Z,8.43
2018-10-01T14:39:17.656Z,8.35
2018-10-01T14:41:45.322Z,8.26
2018-10-01T14:44:12.959Z,8.19
2018-10-01T14:46:40.616Z,8.11
2018-10-01T14:49:08.218Z,8.00
2018-10-01T14:51:36.172Z,7.92
2018-10-01T14:54:03.940Z,7.82
2018-10-01T14:56:31.672Z,7.65
2018-10-01T14:58:59.375Z,7.60
2018-10-01T15:01:27.204Z,7.51
2018-10-01T15:03:54.945Z,7.45
2018-10-01T15:06:22.578Z,7.38
2018-10-01T15:08:50.271Z,7.31
2018-10-01T15:11:19.166Z,7.26
2018-10-01T15:13:46.895Z,7.23
2018-10-01T15:16:14.563Z,7.19
2018-10-01T15:18:42.244Z,7.12
2018-10-01T15:21:09.845Z,7.05
2018-10-01T15:23:38.349Z,6.94
2018-10-01T15:26:06.013Z,6.84
2018-10-01T15:28:34.116Z,6.71
2018-10-01T15:31:01.796Z,6.63
2018-10-01T15:33:29.664Z,6.51
2018-10-01T15:35:57.326Z,6.41
2018-10-01T15:38:26.976Z,6.32
2018-10-01T15:40:54.649Z,6.21
2018-10-01T15:43:22.317Z,6.09
2018-10-01T15:45:50.001Z,5.98
2018-10-01T15:48:18.525Z,5.89
2018-10-01T15:50:46.205Z,5.81
2018-10-01T15:53:14.011Z,5.70
2018-10-01T15:55:41.714Z,5.59
2018-10-01T15:58:09.340Z,5.48
2018-10-01T16:00:36.973Z,5.37
2018-10-01T16:03:04.693Z,5.25
2018-10-01T16:05:32.364Z,5.13
2018-10-01T16:08:00.070Z,5.03
2018-10-01T16:10:27.681Z,4.92
2018-10-01T16:12:55.363Z,4.82
2018-10-01T16:15:23.013Z,4.72
2018-10-01T16:17:50.659Z,4.61
2018-10-01T16:20:18.299Z,4.47
2018-10-01T16:22:46.033Z,4.32
2018-10-01T16:25:13.746Z,4.21
2018-10-01T16:27:41.361Z,4.10
2018-10-01T16:30:09.340Z,4.04
2018-10-01T16:32:36.996Z,3.93
2018-10-01T16:35:04.788Z,3.79
2018-10-01T16:37:32.482Z,3.68
2018-10-01T16:40:00.124Z,3.60
2018-10-01T16:42:27.817Z,3.47
2018-10-01T16:44:55.499Z,3.37
2018-10-01T16:47:23.130Z,3.27
2018-10-01T16:49:50.770Z,3.17
2018-10-01T16:52:18.436Z,3.07
2018-10-01T16:54:46.080Z,2.97
2018-10-01T16:57:13.714Z,2.86
2018-10-01T16:59:41.384Z,2.76
2018-10-01T17:02:09.049Z,2.67
2018-10-01T17:04:36.689Z,2.59
2018-10-01T17:07:04.450Z,2.47
2018-10-01T17:09:32.069Z,2.41
2018-10-01T17:11:59.689Z,2.36
2018-10-01T17:14:27.744Z,2.27
2018-10-01T17:16:55.366Z,2.21
2018-10-01T17:19:23.015Z,2.11
2018-10-01T17:21:50.670Z,2.02
2018-10-01T17:24:18.297Z,1.96
2018-10-01T17:26:45.933Z,1.91
2018-10-01T17:29:13.659Z,1.84
2018-10-01T17:31:41.296Z,1.78
2018-10-01T17:34:08.965Z,1.72
2018-10-01T17:36:36.677Z,1.62
2018-10-01T17:39:07.301Z,1.52
2018-10-01T17:41:34.950Z,1.41
2018-10-01T17:44:02.591Z,1.29
2018-10-01T17:46:30.259Z,1.22
2018-10-01T17:48:57.892Z,1.15
2018-10-01T17:51:25.573Z,1.12
2018-10-01T17:53:53.241Z,1.09
2018-10-01T17:56:20.869Z,1.01
2018-10-01T17:58:48.496Z,0.92
2018-10-01T18:01:17.152Z,0.88
2018-10-01T18:03:44.793Z,0.87
2018-10-01T18:06:12.460Z,0.83
2018-10-01T18:08:40.105Z,0.79
2018-10-01T18:11:07.813Z,0.74
2018-10-01T18:13:35.521Z,0.70
2018-10-01T18:16:03.156Z,0.70
2018-10-01T18:18:31.509Z,0.71
2018-10-01T18:20:59.147Z,0.72
2018-10-01T18:23:26.766Z,0.75
2018-10-01T18:25:54.469Z,0.78
2018-10-01T18:28:22.084Z,0.82
2018-10-01T18:30:49.697Z,0.86
2018-10-01T18:33:17.445Z,0.85
2018-10-01T18:35:45.136Z,0.87
2018-10-01T18:38:12.725Z,0.86
2018-10-01T18:40:40.395Z,0.88
2018-10-01T18:43:08.033Z,0.89
2018-10-01T18:45:35.644Z,0.91
2018-10-01T18:48:03.386Z,0.91
2018-10-01T18:50:31.008Z,0.97
2018-10-01T18:52:58.632Z,0.99
2018-10-01T18:55:26.285Z,0.99
2018-10-01T18:57:53.910Z,0.96
2018-10-01T19:00:21.604Z,0.95
2018-10-01T19:02:49.214Z,0.93
2018-10-01T19:05:16.875Z,0.89
2018-10-01T19:07:45.371Z,0.87
2018-10-01T19:10:13.848Z,0.82
2018-10-01T19:12:41.440Z,0.81
2018-10-01T19:15:10.469Z,0.80
2018-10-01T19:17:38.101Z,0.77
2018-10-01T19:20:05.787Z,0.75
2018-10-01T19:22:33.560Z,0.72
2018-10-01T19:25:01.229Z,0.71
2018-10-01T19:27:28.889Z,0.68
2018-10-01T19:29:56.663Z,0.65
2018-10-01T19:32:24.277Z,0.64
2018-10-01T19:34:51.948Z,0.61
2018-10-01T19:37:19.649Z,0.58
2018-10-01T19:39:47.292Z,0.56
2018-10-01T19:42:14.921Z,0.54
2018-10-01T19:44:42.651Z,0.55
2018-10-01T19:47:10.331Z,0.53
2018-10-01T19:49:37.989Z,0.51
2018-10-01T19:52:05.772Z,0.48
2018-10-01T19:54:33.421Z,0.47
2018-10-01T19:57:01.103Z,0.44
2018-10-01T19:59:28.753Z,0.42
2018-10-01T20:01:56.379Z,0.41
2018-10-01T20:04:24.010Z,0.37
2018-10-01T20:06:51.720Z,0.37
2018-10-01T20:09:19.425Z,0.36
2018-10-01T20:11:47.050Z,0.37
2018-10-01T20:14:14.739Z,0.36
2018-10-01T20:16:42.369Z,0.34
2018-10-01T20:19:10.007Z,0.37
2018-10-01T20:21:37.690Z,0.39
2018-10-01T20:24:05.404Z,0.39
2018-10-01T20:26:33.179Z,0.40
2018-10-01T20:29:01.025Z,0.38
2018-10-01T20:31:28.402Z,0.36
2018-10-01T20:33:56.049Z,0.34
2018-10-01T20:36:23.770Z,0.34
2018-10-01T20:38:51.412Z,0.34
2018-10-01T20:41:19.092Z,0.33
2018-10-01T20:43:46.701Z,0.34
2018-10-01T20:46:14.394Z,0.36
2018-10-01T20:48:42.017Z,0.39
2018-10-01T20:51:09.642Z,0.40
2018-10-01T20:53:37.365Z,0.44
2018-10-01T20:56:05.075Z,0.46
2018-10-01T20:58:32.694Z,0.49
2018-10-01T21:01:00.374Z,0.49
2018-10-01T21:03:27.994Z,0.53
2018-10-01T21:05:55.652Z,0.55
2018-10-01T21:08:23.387Z,0.56
2018-10-01T21:10:50.989Z,0.56
2018-10-01T21:13:18.636Z,0.58
2018-10-01T21:15:46.286Z,0.56
2018-10-01T21:18:14.021Z,0.57
2018-10-01T21:20:41.699Z,0.56
2018-10-01T21:23:09.377Z,0.55
2018-10-01T21:25:37.033Z,0.53
2018-10-01T21:28:04.689Z,0.51
2018-10-01T21:30:32.355Z,0.49
2018-10-01T21:32:59.981Z,0.49
2018-10-01T21:35:27.655Z,0.51
2018-10-01T21:37:55.309Z,0.52
2018-10-01T21:40:22.980Z,0.51
2018-10-01T21:42:50.655Z,0.51
2018-10-01T21:45:18.690Z,0.50
2018-10-01T21:47:46.384Z,0.49
2018-10-01T21:50:14.041Z,0.51
2018-10-01T21:52:41.681Z,0.53
2018-10-01T21:55:09.332Z,0.54
2018-10-01T21:57:37.053Z,0.56
2018-10-01T22:00:07.433Z,0.59
2018-10-01T22:02:35.094Z,0.60
2018-10-01T22:05:02.810Z,0.61
2018-10-01T22:07:30.442Z,0.61
2018-10-01T22:09:58.085Z,0.63
2018-10-01T22:12:25.701Z,0.70
2018-10-01T22:14:53.413Z,0.76
2018-10-01T22:17:21.057Z,0.80
2018-10-01T22:19:48.760Z,0.82
2018-10-01T22:22:16.468Z,0.88
2018-10-01T22:24:44.085Z,0.95
2018-10-01T22:27:11.743Z,0.99
2018-10-01T22:29:39.401Z,1.02
2018-10-01T22:32:07.038Z,1.08
2018-10-01T22:34:34.717Z,1.12
2018-10-01T22:37:02.428Z,1.18
2018-10-01T22:39:30.085Z,1.24
2018-10-01T22:41:57.705Z,1.32
2018-10-01T22:44:25.349Z,1.39
2018-10-01T22:46:52.968Z,1.47
2018-10-01T22:49:20.689Z,1.51
2018-10-01T22:51:48.366Z,1.62
2018-10-01T22:54:15.990Z,1.72
2018-10-01T22:56:43.674Z,1.81
2018-10-01T22:59:11.353Z,1.87
2018-10-01T23:01:38.999Z,1.94
2018-10-01T23:04:06.660Z,2.01
2018-10-01T23:06:34.316Z,2.07
2018-10-01T23:09:01.935Z,2.15
2018-10-01T23:11:29.544Z,2.24
2018-10-01T23:13:57.183Z,2.31
2018-10-01T23:16:24.835Z,2.36
2018-10-01T23:18:52.769Z,2.44
2018-10-01T23:21:20.449Z,2.48
2018-10-01T23:23:48.084Z,2.62
2018-10-01T23:26:15.786Z,2.71
2018-10-01T23:28:43.408Z,2.82
2018-10-01T23:31:11.068Z,2.98
2018-10-01T23:33:38.696Z,3.12
2018-10-01T23:36:06.364Z,3.23
2018-10-01T23:38:34.097Z,3.27
2018-10-01T23:41:01.667Z,3.39
2018-10-01T23:43:29.289Z,3.44
2018-10-01T23:45:56.916Z,3.47
2018-10-01T23:48:24.560Z,3.49
2018-10-01T23:50:52.176Z,3.48
2018-10-01T23:53:19.813Z,3.45
2018-10-01T23:55:47.428Z,3.46
2018-10-01T23:58:15.045Z,3.45
